Time;durP1;ratioP1;P1;durP2;ratioP2;P2;SDS_P1;SDS_P2;PMS_P1;PMS_P2;Temp;Humidity;BMP_temperature;BMP_pressure;BME280_temperature;BME280_humidity;BME280_pressure;Samples;Min_cycle;Max_cycle;Signal;HPM_P1;HPM_P2
2022/12/13 00:01:22;;;;;;;22.92;9.45;;;;;;;-1.28;67.84;98207.91;4477982;31;20159;-85
2022/12/13 00:03:47;;;;;;;23.50;9.20;;;;;;;-1.68;69.22;98208.53;4487903;31;20080;-85
2022/12/13 00:06:13;;;;;;;22.73;9.50;;;;;;;-1.60;69.43;98204.97;4502634;31;20110;-85
2022/12/13 00:08:39;;;;;;;23.58;9.35;;;;;;;-1.54;69.30;98209.19;4502789;31;20084;-87
2022/12/13 00:11:07;;;;;;;21.73;9.00;;;;;;;-1.40;68.98;98214.97;4502429;31;20076;-87
2022/12/13 00:13:33;;;;;;;20.08;8.77;;;;;;;-1.34;68.49;98213.19;4488499;31;20127;-87
2022/12/13 00:16:00;;;;;;;22.25;9.13;;;;;;;-1.37;69.13;98221.84;4502843;31;20100;-87
2022/12/13 00:18:26;;;;;;;23.65;8.80;;;;;;;-1.39;68.75;98215.84;4487956;31;20146;-88
2022/12/13 00:20:51;;;;;;;20.98;8.20;;;;;;;-1.77;69.84;98230.19;4488371;31;20087;-86
2022/12/13 00:23:17;;;;;;;20.33;8.73;;;;;;;-1.44;68.54;98221.06;4502649;31;20411;-86
2022/12/13 00:25:42;;;;;;;23.95;9.35;;;;;;;-1.28;67.68;98218.25;4502760;31;20088;-86
2022/12/13 00:28:08;;;;;;;19.95;8.98;;;;;;;-1.27;68.14;98220.81;4502565;31;20114;-86
2022/12/13 00:30:34;;;;;;;20.20;8.57;;;;;;;-1.37;68.47;98213.22;4502491;31;20080;-86
2022/12/13 00:32:59;;;;;;;21.92;9.38;;;;;;;-1.26;67.71;98217.34;4488605;31;20136;-86
2022/12/13 00:35:25;;;;;;;21.33;9.63;;;;;;;-0.92;66.72;98208.19;4502663;31;20325;-87
2022/12/13 00:37:50;;;;;;;23.85;9.25;;;;;;;-0.90;66.40;98215.03;4475340;31;20120;-87
2022/12/13 00:40:16;;;;;;;22.00;8.77;;;;;;;-0.95;66.86;98221.16;4488538;31;20415;-87
2022/12/13 00:42:41;;;;;;;20.15;8.50;;;;;;;-0.87;66.50;98222.72;4502379;31;20088;-87
2022/12/13 00:45:08;;;;;;;22.80;8.77;;;;;;;-1.48;68.29;98227.16;4488366;31;20154;-87
2022/12/13 00:47:34;;;;;;;20.95;9.25;;;;;;;-1.36;67.28;98226.13;4502821;31;20427;-87
2022/12/13 00:50:00;;;;;;;22.00;9.30;;;;;;;-1.31;67.53;98236.41;4488205;31;20111;-86
2022/12/13 00:52:25;;;;;;;22.13;9.40;;;;;;;-1.21;67.47;98235.38;4502199;31;20079;-87
2022/12/13 00:54:51;;;;;;;23.77;9.45;;;;;;;-1.26;67.38;98237.16;4502650;31;20115;-87
2022/12/13 00:57:16;;;;;;;21.70;9.40;;;;;;;-1.34;67.58;98244.19;4487779;31;20096;-87
2022/12/13 00:59:41;;;;;;;21.45;8.55;;;;;;;-1.27;67.56;98238.91;4502510;31;20087;-87
2022/12/13 01:02:07;;;;;;;23.60;9.38;;;;;;;-1.13;67.20;98230.91;4502232;31;20123;-86
2022/12/13 01:04:32;;;;;;;22.62;9.57;;;;;;;-1.60;68.10;98245.44;4502155;31;20085;-86
2022/12/13 01:06:58;;;;;;;25.77;10.43;;;;;;;-1.13;67.53;98243.00;4487850;31;20100;-87
2022/12/13 01:09:31;;;;;;;25.15;10.30;;;;;;;-0.91;66.61;98243.47;4501787;31;20084;-86
2022/12/13 01:12:01;;;;;;;28.00;10.77;;;;;;;-1.57;68.80;98253.13;4502337;31;20083;-87
2022/12/13 01:14:27;;;;;;;25.67;10.80;;;;;;;-1.31;68.10;98245.00;4487846;31;20139;-86
2022/12/13 01:16:56;;;;;;;25.20;10.98;;;;;;;-1.21;67.87;98250.88;4501284;31;20096;-86
2022/12/13 01:19:25;;;;;;;23.83;10.38;;;;;;;-1.58;69.04;98256.59;4501159;31;20423;-86
2022/12/13 01:22:01;;;;;;;26.42;11.40;;;;;;;-1.31;68.00;98265.69;4485892;31;20114;-85
2022/12/13 01:24:27;;;;;;;27.90;10.38;;;;;;;-1.02;67.50;98266.94;4478905;31;20096;-86
2022/12/13 01:26:53;;;;;;;24.12;10.50;;;;;;;-1.21;67.78;98268.97;4487771;31;20667;-86
2022/12/13 01:29:19;;;;;;;27.05;11.25;;;;;;;-1.46;68.43;98276.25;4487724;31;20139;-87
2022/12/13 01:31:45;;;;;;;26.05;10.18;;;;;;;-1.83;69.63;98285.34;4487810;31;20408;-86
2022/12/13 01:34:11;;;;;;;25.92;10.65;;;;;;;-1.71;69.13;98276.56;4487566;31;20101;-85
2022/12/13 01:36:42;;;;;;;27.50;11.35;;;;;;;-1.44;68.65;98275.31;4501848;31;20123;-85
2022/12/13 01:39:09;;;;;;;26.58;10.30;;;;;;;-1.15;67.62;98283.53;4501779;31;20091;-85
2022/12/13 01:41:35;;;;;;;27.63;12.20;;;;;;;-1.62;68.79;98285.94;4501868;31;20110;-85
2022/12/13 01:44:03;;;;;;;25.20;11.05;;;;;;;-1.16;68.01;98286.97;4487573;31;20451;-84
2022/12/13 01:46:30;;;;;;;26.42;10.20;;;;;;;-1.00;67.22;98289.31;4487749;31;20103;-85
2022/12/13 01:49:05;;;;;;;24.63;10.25;;;;;;;-0.85;66.74;98290.78;4501510;31;20076;-84
2022/12/13 01:51:45;;;;;;;23.42;10.30;;;;;;;-0.87;66.01;98292.56;4487016;31;20079;-85
2022/12/13 01:54:12;;;;;;;25.48;10.40;;;;;;;-0.71;65.77;98297.47;4501623;31;20096;-84
2022/12/13 01:56:42;;;;;;;25.73;11.00;;;;;;;-0.76;65.82;98302.69;4488915;31;20119;-85
2022/12/13 01:59:10;;;;;;;27.10;10.55;;;;;;;-0.21;64.23;98295.69;4489327;31;20134;-85
2022/12/13 02:01:35;;;;;;;24.00;10.63;;;;;;;-0.52;65.38;98303.16;4489266;31;20084;-83
2022/12/13 02:04:01;;;;;;;22.92;9.05;;;;;;;-0.15;64.12;98294.72;4489444;31;20360;-85
2022/12/13 02:06:52;;;;;;;24.23;10.07;;;;;;;-0.13;63.67;98286.03;4503694;31;20110;-85
2022/12/13 02:09:18;;;;;;;23.38;8.88;;;;;;;-0.37;64.52;98294.25;4485560;31;20118;-85
2022/12/13 02:11:44;;;;;;;21.58;9.40;;;;;;;-0.32;64.61;98289.88;4488871;31;20428;-85
2022/12/13 02:14:10;;;;;;;22.02;8.85;;;;;;;-0.45;65.15;98294.41;4489573;31;20104;-85
2022/12/13 02:16:59;;;;;;;22.42;8.63;;;;;;;-0.42;65.08;98291.78;4489453;31;20155;-85
2022/12/13 02:19:39;;;;;;;20.35;8.73;;;;;;;-0.75;66.23;98288.91;4489289;31;20110;-89
2022/12/13 02:22:32;;;;;;;20.83;7.90;;;;;;;-0.15;64.29;98284.38;4503692;31;20140;-90
2022/12/13 02:25:15;;;;;;;20.30;8.23;;;;;;;-0.09;64.01;98282.50;4489173;31;20519;-89
2022/12/13 02:27:59;;;;;;;20.67;8.25;;;;;;;-0.16;64.01;98272.28;4503553;31;20134;-89
2022/12/13 02:30:29;;;;;;;21.60;8.50;;;;;;;-0.61;65.42;98286.06;4503598;31;20084;-88
2022/12/13 02:32:54;;;;;;;21.00;8.60;;;;;;;-0.38;65.04;98292.56;4503457;31;20084;-86
2022/12/13 02:35:26;;;;;;;21.80;8.25;;;;;;;-0.85;66.34;98292.50;4488843;31;20143;-86
2022/12/13 02:38:12;;;;;;;19.25;7.90;;;;;;;-0.76;66.50;98291.50;4489254;31;20554;-85
2022/12/13 02:40:42;;;;;;;19.35;7.62;;;;;;;-0.54;65.43;98291.97;4488882;31;20179;-84
2022/12/13 02:43:12;;;;;;;21.52;8.40;;;;;;;-0.24;64.55;98285.37;4489009;31;20099;-85
2022/12/13 02:45:49;;;;;;;20.60;9.18;;;;;;;-0.51;65.20;98292.78;4488950;31;20492;-85
2022/12/13 02:48:19;;;;;;;20.90;8.60;;;;;;;-0.35;64.71;98289.91;4489004;31;20152;-86
2022/12/13 02:50:45;;;;;;;22.27;8.80;;;;;;;-0.70;65.75;98288.81;4488728;31;20121;-86
2022/12/13 02:53:12;;;;;;;21.62;8.52;;;;;;;-0.70;65.74;98292.25;4488824;31;20115;-85
2022/12/13 02:55:40;;;;;;;20.98;8.32;;;;;;;-0.57;64.74;98286.87;4488615;31;20093;-86
2022/12/13 02:58:06;;;;;;;23.08;9.32;;;;;;;-0.32;64.28;98282.09;4503050;31;20114;-87
2022/12/13 03:00:47;;;;;;;20.95;8.93;;;;;;;-0.03;63.02;98286.72;4503191;31;20095;-88
2022/12/13 03:03:26;;;;;;;21.83;9.35;;;;;;;-0.02;62.70;98284.09;4503337;31;20068;-88
2022/12/13 03:06:29;;;;;;;23.75;8.60;;;;;;;-0.13;63.09;98285.19;4503261;31;20149;-88
2022/12/13 03:09:16;;;;;;;20.60;7.78;;;;;;;-0.03;62.67;98286.72;4503312;31;20113;-89
2022/12/13 03:15:18;;;;;;;20.85;7.65;;;;;;;-0.19;62.63;98280.97;4503413;31;20148;-88
2022/12/13 03:17:48;;;;;;;19.83;8.05;;;;;;;0.10;61.98;98285.56;4488927;31;20176;-88
2022/12/13 03:20:18;;;;;;;19.75;8.35;;;;;;;0.07;61.85;98297.72;4488959;31;20100;-89
2022/12/13 03:22:43;;;;;;;20.08;7.70;;;;;;;-0.27;62.73;98293.19;4488818;31;20231;-89
2022/12/13 03:25:08;;;;;;;20.17;8.40;;;;;;;0.24;nan;98295.66;4488724;31;20436;-88
2022/12/13 03:27:34;;;;;;;20.67;7.87;;;;;;;0.24;nan;98289.62;4475517;31;20100;-86
2022/12/13 03:29:59;;;;;;;19.77;8.93;;;;;;;0.37;60.82;98286.72;4503094;31;20356;-89
2022/12/13 03:32:25;;;;;;;21.08;7.87;;;;;;;0.25;60.85;98281.81;4503142;31;20079;-89
2022/12/13 03:34:50;;;;;;;18.92;8.55;;;;;;;0.31;60.69;98286.00;4488752;31;20077;-89
2022/12/13 03:37:16;;;;;;;21.30;8.25;;;;;;;0.08;61.17;98291.66;4488630;31;20092;-86
2022/12/13 03:39:41;;;;;;;17.83;7.90;;;;;;;-0.22;61.60;98283.63;4503023;31;20114;-87
2022/12/13 03:42:06;;;;;;;18.08;7.62;;;;;;;-0.37;62.88;98291.66;4488671;31;20147;-86
2022/12/13 03:44:32;;;;;;;19.08;7.65;;;;;;;-0.11;61.83;98292.03;4503066;31;20340;-85
2022/12/13 03:46:57;;;;;;;20.73;7.90;;;;;;;-0.04;61.63;98290.16;4503085;31;20124;-85
2022/12/13 03:49:23;;;;;;;18.95;7.65;;;;;;;0.07;61.13;98297.72;4502752;31;20080;-85
2022/12/13 03:51:48;;;;;;;17.95;7.30;;;;;;;-0.40;62.42;98303.78;4503003;31;20075;-85
2022/12/13 03:54:13;;;;;;;20.52;7.93;;;;;;;-0.25;61.97;98296.59;4502739;31;20103;-87
2022/12/13 03:56:39;;;;;;;21.27;7.95;;;;;;;0.07;61.00;98297.72;4502873;31;20123;-87
2022/12/13 03:59:04;;;;;;;20.77;8.20;;;;;;;0.28;60.29;98304.22;4503023;31;20119;-87
2022/12/13 04:01:30;;;;;;;21.27;8.63;;;;;;;0.06;60.74;98296.00;4488465;31;20140;-87
2022/12/13 04:03:55;;;;;;;21.50;8.48;;;;;;;0.04;60.93;98296.06;4488532;31;20084;-87
2022/12/13 04:06:20;;;;;;;24.12;9.70;;;;;;;0.09;60.62;98295.97;4502742;31;20093;-86
2022/12/13 04:08:46;;;;;;;21.67;8.93;;;;;;;-0.43;61.63;98303.00;4502751;31;20344;-86
2022/12/13 04:13:55;;;;;;;19.73;8.40;;;;;;;-0.57;61.99;98312.75;4503100;31;20103;-84
2022/12/13 04:16:22;;;;;;;25.37;9.65;;;;;;;-0.06;60.87;98310.06;4502971;31;20100;-85
2022/12/13 04:18:47;;;;;;;25.77;9.52;;;;;;;-0.23;61.43;98313.84;4502244;31;20088;-86
2022/12/13 04:21:12;;;;;;;21.80;9.13;;;;;;;0.14;60.33;98312.28;4475220;31;20087;-87
2022/12/13 04:23:38;;;;;;;22.42;9.40;;;;;;;0.15;60.23;98307.03;4488368;31;20364;-87
2022/12/13 04:26:03;;;;;;;22.48;9.23;;;;;;;0.25;59.78;98301.66;4502579;31;20144;-87
2022/12/13 04:28:29;;;;;;;23.02;9.43;;;;;;;0.40;59.27;98301.34;4488541;31;20352;-88
2022/12/13 04:30:54;;;;;;;23.12;9.38;;;;;;;0.39;59.29;98303.09;4502674;31;20110;-87
2022/12/13 04:33:21;;;;;;;23.62;9.52;;;;;;;0.15;59.84;98307.03;4502695;31;20162;-87
2022/12/13 04:35:47;;;;;;;22.52;9.82;;;;;;;0.43;59.03;98303.03;4502782;31;20155;-86
2022/12/13 04:38:13;;;;;;;21.25;9.15;;;;;;;0.41;59.15;98308.25;4488549;31;20125;-86
2022/12/13 04:40:38;;;;;;;20.40;9.07;;;;;;;0.53;58.68;98307.97;4502865;31;20096;-85
2022/12/13 04:43:03;;;;;;;20.73;9.60;;;;;;;0.54;58.50;98307.09;4502478;31;20416;-86
2022/12/13 04:45:29;;;;;;;25.05;9.57;;;;;;;0.50;58.63;98309.78;4502785;31;20136;-87
2022/12/13 04:47:54;;;;;;;23.02;9.52;;;;;;;0.16;59.51;98318.28;4488551;31;20382;-86
2022/12/13 04:50:20;;;;;;;23.45;8.88;;;;;;;0.44;58.62;98310.75;4488071;31;20091;-86
2022/12/13 04:52:45;;;;;;;22.58;9.18;;;;;;;0.51;58.40;98316.69;4502260;31;20084;-86
2022/12/13 04:55:11;;;;;;;23.08;9.60;;;;;;;0.42;58.55;98312.53;4502012;31;20084;-85
2022/12/13 04:57:36;;;;;;;23.92;9.68;;;;;;;0.47;58.57;98318.47;4486022;31;20462;-86
2022/12/13 05:00:04;;;;;;;24.70;9.05;;;;;;;0.52;58.49;98315.78;4474892;31;20091;-86
2022/12/13 05:02:29;;;;;;;23.67;9.57;;;;;;;0.49;58.64;98321.03;4483880;31;20085;-85
2022/12/13 05:04:55;;;;;;;25.45;9.75;;;;;;;0.14;59.68;98322.63;4484656;32;20119;-85
2022/12/13 05:07:20;;;;;;;22.30;10.13;;;;;;;0.12;59.60;98317.47;4484890;32;20466;-86
2022/12/13 05:09:46;;;;;;;24.85;9.50;;;;;;;-0.13;60.15;98311.94;4484921;32;20416;-85
2022/12/13 05:12:11;;;;;;;25.67;10.10;;;;;;;-0.20;60.71;98320.69;4486341;31;20068;-86
2022/12/13 05:14:36;;;;;;;23.10;9.63;;;;;;;-0.15;60.14;98313.69;4486390;31;20100;-86
2022/12/13 05:17:02;;;;;;;23.38;10.02;;;;;;;-0.92;62.07;98319.34;4485059;32;20156;-86
2022/12/13 05:19:28;;;;;;;23.12;10.60;;;;;;;-0.61;61.43;98310.19;4488014;31;20120;-86
2022/12/13 05:21:53;;;;;;;22.83;9.77;;;;;;;-0.57;61.82;98313.59;4486220;32;20143;-86
2022/12/13 05:24:18;;;;;;;23.77;9.50;;;;;;;-0.62;61.62;98320.56;4479713;32;20444;-86
2022/12/13 05:26:44;;;;;;;25.90;10.18;;;;;;;-0.40;61.15;98313.28;4486406;31;20136;-85
2022/12/13 05:29:10;;;;;;;24.33;10.95;;;;;;;-0.22;60.67;98306.91;4486368;31;20072;-84
2022/12/13 05:31:35;;;;;;;24.27;9.48;;;;;;;-0.32;60.91;98310.56;4488028;31;20088;-85
2022/12/13 05:34:00;;;;;;;25.90;10.40;;;;;;;-0.24;60.74;98313.84;4494741;31;20511;-85
2022/12/13 05:36:26;;;;;;;23.35;10.00;;;;;;;-0.13;60.47;98311.94;4494314;31;20084;-91
2022/12/13 05:38:52;;;;;;;23.25;9.35;;;;;;;0.02;60.02;98312.50;4489510;32;20084;-91
2022/12/13 05:41:20;;;;;;;24.15;10.43;;;;;;;0.14;59.73;98320.88;4488301;32;20072;-85
2022/12/13 05:43:45;;;;;;;23.52;9.68;;;;;;;0.19;59.43;98318.19;4473792;32;20097;-85
2022/12/13 05:46:11;;;;;;;22.90;9.57;;;;;;;0.27;59.10;98316.31;4487977;32;20084;-88
2022/12/13 05:48:36;;;;;;;24.27;9.30;;;;;;;0.29;58.98;98311.09;4487996;32;20103;-89
2022/12/13 05:51:02;;;;;;;23.02;9.65;;;;;;;0.30;58.85;98305.88;4473577;32;20132;-88
2022/12/13 05:53:27;;;;;;;23.75;9.88;;;;;;;0.34;58.77;98320.47;4488321;32;20093;-85
2022/12/13 05:55:52;;;;;;;23.12;9.90;;;;;;;0.36;58.66;98316.09;4488002;32;20326;-84
2022/12/13 05:58:18;;;;;;;23.90;9.50;;;;;;;0.37;58.59;98317.81;4491730;31;20203;-89
2022/12/13 06:00:43;;;;;;;21.95;9.90;;;;;;;0.38;58.51;98308.31;4488111;31;20360;-91
2022/12/13 06:03:09;;;;;;;24.23;9.70;;;;;;;0.31;58.67;98320.56;4492401;31;20427;-89
2022/12/13 06:05:34;;;;;;;21.50;9.40;;;;;;;0.36;58.44;98321.28;4488894;31;20100;-86
2022/12/13 06:08:00;;;;;;;25.23;9.93;;;;;;;0.38;58.22;98321.25;4503370;31;20084;-82
2022/12/13 06:10:26;;;;;;;24.60;10.13;;;;;;;0.39;58.13;98326.41;4503365;31;20075;-84
2022/12/13 06:12:51;;;;;;;22.10;9.18;;;;;;;0.40;58.06;98332.44;4502140;31;20164;-82
2022/12/13 06:15:17;;;;;;;22.48;9.55;;;;;;;0.39;58.07;98325.56;4503361;31;20382;-86
2022/12/13 06:17:42;;;;;;;23.95;10.23;;;;;;;0.42;57.96;98328.06;4503571;31;20080;-87
2022/12/13 06:20:08;;;;;;;22.90;9.35;;;;;;;0.45;57.91;98340.97;4503618;31;20154;-86
2022/12/13 06:22:34;;;;;;;24.48;9.35;;;;;;;0.42;58.02;98335.84;4503744;31;20087;-87
2022/12/13 06:25:00;;;;;;;24.08;9.98;;;;;;;0.42;58.06;98341.03;4503547;31;20111;-87
2022/12/13 06:27:26;;;;;;;20.70;9.13;;;;;;;0.45;57.93;98340.97;4503650;31;20076;-84
2022/12/13 06:29:51;;;;;;;22.40;8.32;;;;;;;0.48;57.87;98329.69;4489142;31;20378;-86
2022/12/13 06:32:16;;;;;;;20.45;8.68;;;;;;;0.52;57.89;98347.75;4503504;31;20076;-83
2022/12/13 06:34:42;;;;;;;23.55;9.75;;;;;;;0.52;57.95;98334.78;4503575;31;20080;-84
2022/12/13 06:37:10;;;;;;;26.23;9.55;;;;;;;0.26;58.59;98345.69;4489041;31;20120;-84
2022/12/13 06:39:36;;;;;;;24.58;9.35;;;;;;;-0.17;59.68;98351.69;4489149;31;20136;-87
2022/12/13 06:42:06;;;;;;;24.92;9.93;;;;;;;0.12;59.07;98358.06;4503066;31;20389;-88
2022/12/13 06:44:32;;;;;;;25.70;10.27;;;;;;;0.27;58.62;98355.19;4486005;31;20455;-85
2022/12/13 06:46:59;;;;;;;23.80;9.55;;;;;;;-0.05;59.56;98358.38;4486921;31;20159;-87
2022/12/13 06:49:25;;;;;;;24.37;10.37;;;;;;;0.07;59.54;98362.47;4501077;31;20091;-85
2022/12/13 06:51:50;;;;;;;23.12;10.20;;;;;;;0.35;58.81;98363.66;4487019;31;20120;-87
2022/12/13 06:54:15;;;;;;;25.00;9.60;;;;;;;0.38;58.83;98357.53;4502159;31;20137;-85
2022/12/13 06:56:41;;;;;;;22.08;9.50;;;;;;;0.54;58.36;98360.66;4502051;31;20084;-84
2022/12/13 06:59:06;;;;;;;24.02;9.90;;;;;;;0.62;57.97;98357.91;4501910;31;20076;-83
2022/12/13 07:01:31;;;;;;;22.85;9.88;;;;;;;0.70;57.80;98353.44;4502594;31;20118;-84
2022/12/13 07:03:57;;;;;;;22.58;9.63;;;;;;;0.36;58.46;98362.75;4503506;31;20114;-84
2022/12/13 07:06:23;;;;;;;24.92;10.30;;;;;;;0.67;57.81;98366.44;4503364;31;20083;-83
2022/12/13 07:08:54;;;;;;;24.37;9.68;;;;;;;0.48;58.08;98373.75;4503106;31;20080;-83
2022/12/13 07:11:22;;;;;;;22.42;9.90;;;;;;;0.67;57.89;98380.25;4488766;31;20120;-83
2022/12/13 07:13:48;;;;;;;25.50;9.90;;;;;;;0.85;57.48;98376.44;4488985;31;20412;-84
2022/12/13 07:16:14;;;;;;;23.73;8.90;;;;;;;0.95;57.38;98377.91;4503369;31;20105;-84
2022/12/13 07:18:39;;;;;;;23.38;9.32;;;;;;;1.03;57.27;98372.56;4503282;31;20110;-83
2022/12/13 07:21:06;;;;;;;20.67;9.40;;;;;;;1.12;57.12;98384.44;4503179;31;20149;-83
2022/12/13 07:23:31;;;;;;;19.95;8.07;;;;;;;1.16;57.18;98376.59;4503224;31;20477;-83
2022/12/13 07:25:57;;;;;;;19.23;8.20;;;;;;;0.63;57.61;98385.53;4503233;31;20080;-84
2022/12/13 07:28:22;;;;;;;19.65;7.90;;;;;;;0.68;57.24;98384.56;4503093;31;20080;-84
2022/12/13 07:30:48;;;;;;;21.08;8.88;;;;;;;0.93;56.83;98378.84;4488932;31;20177;-83
2022/12/13 07:33:14;;;;;;;21.30;9.18;;;;;;;1.16;55.65;98386.13;4503086;31;20088;-84
2022/12/13 07:35:40;;;;;;;20.58;8.32;;;;;;;0.87;56.14;98374.66;4503074;31;20144;-84
2022/12/13 07:38:06;;;;;;;22.10;9.40;;;;;;;0.76;56.65;98389.59;4503203;31;20095;-83
2022/12/13 07:40:38;;;;;;;22.87;8.75;;;;;;;0.94;56.30;98388.31;4503068;31;20088;-84
2022/12/13 07:43:04;;;;;;;20.17;7.90;;;;;;;0.90;56.29;98389.28;4488819;31;20139;-83
2022/12/13 07:45:30;;;;;;;22.73;8.35;;;;;;;0.92;56.12;98390.94;4489052;31;20431;-84
2022/12/13 07:47:55;;;;;;;22.33;8.75;;;;;;;1.07;55.74;98389.75;4488746;31;20118;-84
2022/12/13 07:50:21;;;;;;;18.77;8.13;;;;;;;1.11;55.77;98393.13;4502970;31;20115;-83
2022/12/13 07:52:47;;;;;;;21.25;7.70;;;;;;;1.02;56.06;98393.34;4487689;31;20120;-83
2022/12/13 07:55:12;;;;;;;18.58;8.40;;;;;;;0.99;56.27;98396.88;4503404;31;20092;-84
2022/12/13 07:57:38;;;;;;;21.73;7.80;;;;;;;1.13;55.86;98396.56;4488870;31;20135;-84
2022/12/13 08:00:04;;;;;;;21.00;8.63;;;;;;;1.22;55.12;98398.06;4503316;31;20325;-84
2022/12/13 08:02:29;;;;;;;21.37;9.05;;;;;;;1.17;55.33;98403.38;4503220;31;20127;-84
2022/12/13 08:04:55;;;;;;;20.33;8.40;;;;;;;1.28;55.13;98400.53;4503168;31;20087;-84
2022/12/13 08:07:20;;;;;;;20.33;9.10;;;;;;;1.31;55.11;98403.03;4503135;31;20106;-84
2022/12/13 08:09:45;;;;;;;19.67;8.23;;;;;;;1.13;55.65;98406.94;4502864;31;20107;-83
2022/12/13 08:12:11;;;;;;;20.42;7.65;;;;;;;1.23;55.46;98405.81;4503094;31;20322;-84
2022/12/13 08:14:36;;;;;;;19.75;8.05;;;;;;;1.35;55.01;98407.28;4503051;31;20102;-83
2022/12/13 08:17:01;;;;;;;19.77;7.72;;;;;;;1.48;54.70;98407.84;4503089;31;20463;-84
2022/12/13 08:19:27;;;;;;;18.55;7.37;;;;;;;1.60;54.57;98407.53;4503101;31;20412;-84
2022/12/13 08:21:52;;;;;;;21.92;8.13;;;;;;;1.62;54.54;98407.50;4502951;31;20140;-84
2022/12/13 08:24:18;;;;;;;21.10;8.32;;;;;;;1.49;54.88;98409.56;4502873;31;20137;-83
2022/12/13 08:26:44;;;;;;;22.40;9.13;;;;;;;1.56;54.82;98417.16;4475667;31;20080;-83
2022/12/13 08:29:11;;;;;;;19.75;8.68;;;;;;;1.62;54.55;98413.53;4488560;31;20127;-83
2022/12/13 08:31:36;;;;;;;19.70;8.68;;;;;;;1.42;55.12;98410.59;4475266;31;20127;-83
2022/12/13 08:34:02;;;;;;;24.05;9.73;;;;;;;1.60;54.19;98404.94;4488614;31;20360;-83
2022/12/13 08:36:27;;;;;;;20.15;8.38;;;;;;;1.64;53.97;98411.78;4488486;31;20146;-83
2022/12/13 08:38:56;;;;;;;18.70;7.80;;;;;;;1.18;55.43;98411.12;4502977;31;20096;-83
2022/12/13 08:41:22;;;;;;;20.45;8.65;;;;;;;1.46;54.85;98414.81;4502896;31;20122;-84
2022/12/13 08:43:47;;;;;;;19.95;7.62;;;;;;;1.59;54.53;98417.97;4502876;31;20343;-83
2022/12/13 08:46:13;;;;;;;20.27;8.30;;;;;;;1.80;53.77;98417.44;4502701;31;20132;-83
2022/12/13 08:48:39;;;;;;;19.23;7.43;;;;;;;1.81;53.48;98415.69;4502654;31;20144;-84
2022/12/13 08:51:06;;;;;;;20.55;7.90;;;;;;;1.92;53.33;98413.69;4488501;31;20104;-84
2022/12/13 08:53:32;;;;;;;19.73;7.75;;;;;;;1.64;54.00;98409.19;4488502;31;20091;-83
2022/12/13 08:56:01;;;;;;;16.40;7.03;;;;;;;1.45;54.03;98413.09;4502533;31;20071;-84
2022/12/13 08:58:27;;;;;;;17.60;7.50;;;;;;;1.11;55.12;98413.88;4502471;31;20153;-83
2022/12/13 09:00:53;;;;;;;17.58;7.30;;;;;;;1.49;54.14;98409.56;4488069;31;20128;-83
2022/12/13 09:03:18;;;;;;;17.65;7.03;;;;;;;1.40;54.31;98413.22;4487895;31;20153;-84
2022/12/13 09:05:43;;;;;;;17.45;6.97;;;;;;;1.41;53.95;98414.94;4501799;31;20106;-83
2022/12/13 09:08:10;;;;;;;18.15;6.85;;;;;;;1.79;53.00;98415.72;4487740;31;20116;-83
2022/12/13 09:10:35;;;;;;;16.83;6.82;;;;;;;2.05;52.60;98409.00;4487985;31;20474;-84
2022/12/13 09:13:01;;;;;;;16.75;7.30;;;;;;;1.98;52.67;98408.31;4502236;31;20107;-83
2022/12/13 09:15:27;;;;;;;17.87;7.30;;;;;;;2.06;52.17;98398.56;4502217;31;20116;-83
2022/12/13 09:17:53;;;;;;;18.02;7.45;;;;;;;2.00;51.99;98411.72;4502188;31;20145;-84
2022/12/13 09:20:19;;;;;;;17.85;7.55;;;;;;;2.14;51.70;98401.84;4502234;31;20680;-83
2022/12/13 09:22:44;;;;;;;18.12;7.47;;;;;;;1.70;52.64;98397.78;4502162;31;20106;-83
2022/12/13 09:25:10;;;;;;;14.93;6.72;;;;;;;2.14;51.50;98395.78;4501959;31;20108;-84
2022/12/13 09:27:35;;;;;;;16.48;7.07;;;;;;;2.20;50.71;98397.34;4501975;31;20084;-83
2022/12/13 09:30:00;;;;;;;15.00;6.55;;;;;;;2.03;50.83;98395.19;4501705;31;20463;-84
2022/12/13 09:32:26;;;;;;;16.70;7.00;;;;;;;1.71;51.42;98394.31;4487544;31;20161;-84
2022/12/13 09:34:55;;;;;;;19.12;7.47;;;;;;;1.66;51.60;98394.44;4501895;31;20102;-84
2022/12/13 09:37:20;;;;;;;14.52;6.12;;;;;;;1.80;51.04;98401.00;4501870;31;20104;-84
2022/12/13 09:39:46;;;;;;;16.35;6.30;;;;;;;2.07;50.13;98391.66;4487463;31;20092;-84
2022/12/13 09:42:21;;;;;;;17.83;7.47;;;;;;;1.82;50.47;98394.88;4501885;31;20111;-84
2022/12/13 09:44:54;;;;;;;16.80;7.00;;;;;;;1.65;51.23;98397.06;4487462;31;20083;-84
2022/12/13 09:47:30;;;;;;;17.17;7.10;;;;;;;1.74;50.68;98399.44;4474353;31;20147;-84
2022/12/13 09:49:57;;;;;;;17.15;7.20;;;;;;;2.45;49.65;98394.94;4487524;31;20253;-84
2022/12/13 09:52:24;;;;;;;15.75;6.60;;;;;;;2.36;49.13;98396.06;4501830;31;20084;-84
2022/12/13 09:54:54;;;;;;;20.45;7.00;;;;;;;2.30;49.67;98391.03;4487335;31;20152;-84
2022/12/13 09:57:28;;;;;;;17.17;6.55;;;;;;;2.48;49.28;98390.50;4501605;31;20164;-84
2022/12/13 09:59:54;;;;;;;17.02;6.93;;;;;;;2.64;49.05;98388.31;4487295;31;20100;-84
2022/12/13 10:02:24;;;;;;;16.10;6.57;;;;;;;2.27;49.20;98384.16;4487188;31;20080;-84
2022/12/13 10:04:50;;;;;;;15.43;6.55;;;;;;;2.26;49.66;98386.78;4487126;31;20118;-84
2022/12/13 10:07:18;;;;;;;17.55;6.95;;;;;;;1.81;50.46;98389.72;4487006;31;20103;-84
2022/12/13 10:09:44;;;;;;;19.23;5.87;;;;;;;1.71;50.70;98389.09;4501221;31;20092;-84
2022/12/13 10:12:13;;;;;;;15.75;6.50;;;;;;;2.33;49.31;98388.34;4487169;31;20357;-84
2022/12/13 10:14:43;;;;;;;15.77;6.70;;;;;;;1.91;50.43;98384.28;4487136;31;20076;-84
2022/12/13 10:17:13;;;;;;;15.52;6.28;;;;;;;2.55;48.81;98378.19;4488470;31;20139;-84
2022/12/13 10:19:40;;;;;;;14.65;5.90;;;;;;;2.48;48.13;98374.91;4489418;31;20092;-84
2022/12/13 10:22:14;;;;;;;13.88;6.10;;;;;;;2.79;47.76;98371.41;4503685;31;20499;-83
2022/12/13 10:25:04;;;;;;;13.88;5.90;;;;;;;2.86;47.78;98377.28;4489275;31;20433;-84
2022/12/13 10:27:36;;;;;;;15.65;5.87;;;;;;;3.08;47.73;98365.31;4489729;31;20092;-84
2022/12/13 10:30:16;;;;;;;17.12;6.97;;;;;;;3.19;47.62;98364.13;4503601;31;20088;-84
2022/12/13 10:32:57;;;;;;;14.60;5.20;;;;;;;3.20;47.37;98365.84;4489561;31;20091;-84
2022/12/13 10:35:29;;;;;;;15.20;5.40;;;;;;;3.25;46.86;98362.19;4489466;31;20084;-84
2022/12/13 10:38:00;;;;;;;14.48;5.37;;;;;;;3.38;46.32;98361.78;4503482;31;20088;-84
2022/12/13 10:40:43;;;;;;;13.57;5.03;;;;;;;2.90;46.90;98365.91;4489352;31;20095;-84
2022/12/13 10:43:22;;;;;;;14.45;5.10;;;;;;;3.30;45.92;98362.03;4503807;31;20096;-84
2022/12/13 10:45:56;;;;;;;;;;;;;;;3.45;46.01;98355.50;4503788;31;20088;-84
2022/12/13 10:48:42;;;;;;;15.52;5.80;;;;;;;3.39;45.97;98346.13;4503573;31;19971;-84
2022/12/13 10:51:12;;;;;;;14.38;5.20;;;;;;;3.43;45.59;98349.47;4503768;31;20088;-84
2022/12/13 10:53:58;;;;;;;14.85;5.37;;;;;;;3.51;45.41;98357.88;4489444;31;20081;-84
2022/12/13 10:56:34;;;;;;;13.68;5.90;;;;;;;2.95;46.96;98359.66;4475738;31;20144;-84
2022/12/13 10:59:28;;;;;;;15.40;5.57;;;;;;;2.88;46.80;98350.34;4503743;31;20087;-84
2022/12/13 11:01:54;;;;;;;14.43;5.25;;;;;;;2.94;46.66;98346.69;4503746;31;20079;-84
2022/12/13 11:04:24;;;;;;;14.43;5.47;;;;;;;3.26;45.90;98345.66;4488855;31;20189;-84
2022/12/13 11:06:50;;;;;;;16.17;6.50;;;;;;;3.18;46.34;98339.00;4489097;31;20072;-84
2022/12/13 11:09:26;;;;;;;14.95;5.90;;;;;;;3.12;46.65;98338.28;4503099;31;20115;-84
2022/12/13 11:11:53;;;;;;;14.73;6.37;;;;;;;3.39;46.40;98332.25;4503285;31;20759;-84
2022/12/13 11:14:23;;;;;;;14.60;6.03;;;;;;;3.47;46.40;98328.50;4488922;31;20112;-84
2022/12/13 11:16:50;;;;;;;14.43;5.20;;;;;;;3.42;46.32;98329.53;4488995;31;20225;-84
2022/12/13 11:19:40;;;;;;;15.55;5.40;;;;;;;3.58;45.96;98324.69;4488855;31;20509;-84
2022/12/13 11:22:07;;;;;;;13.20;5.30;;;;;;;3.34;46.33;98322.84;4465830;31;20118;-84
2022/12/13 11:24:35;;;;;;;16.17;6.07;;;;;;;3.39;46.00;98321.84;4488924;31;20530;-84
2022/12/13 11:27:05;;;;;;;14.77;5.72;;;;;;;3.33;46.45;98328.94;4502847;31;20162;-84
2022/12/13 11:29:40;;;;;;;14.93;5.55;;;;;;;3.70;45.93;98319.06;4502917;31;20424;-84
2022/12/13 11:32:32;;;;;;;16.58;6.37;;;;;;;3.76;45.77;98316.22;4503298;31;20151;-84
2022/12/13 11:35:12;;;;;;;15.60;6.03;;;;;;;3.81;45.35;98311.72;4477898;31;20106;-83
2022/12/13 11:37:38;;;;;;;23.12;6.47;;;;;;;3.70;45.50;98317.28;4503457;31;20135;-84
2022/12/13 11:40:03;;;;;;;15.45;6.25;;;;;;;3.95;45.26;98300.81;4502969;31;20423;-84